sensor_id;sensor_type;location;lat;lon;timestamp;temperature;humidity
37408;DHT22;24866;50.248;8.252;2023-06-04T00:00:23;11.90;99.90
37408;DHT22;24866;50.248;8.252;2023-06-04T00:02:53;11.90;99.90
37408;DHT22;24866;50.248;8.252;2023-06-04T00:05:23;12.30;99.90
37408;DHT22;24866;50.248;8.252;2023-06-04T00:07:53;12.20;99.90
37408;DHT22;24866;50.248;8.252;2023-06-04T00:10:23;12.20;99.90
37408;DHT22;24866;50.248;8.252;2023-06-04T00:12:55;12.30;1.00
37408;DHT22;24866;50.248;8.252;2023-06-04T00:15:25;11.90;99.90
37408;DHT22;24866;50.248;8.252;2023-06-04T00:17:54;12.10;99.90
37408;DHT22;24866;50.248;8.252;2023-06-04T00:20:25;11.90;1.00
37408;DHT22;24866;50.248;8.252;2023-06-04T00:22:55;12.00;1.00
37408;DHT22;24866;50.248;8.252;2023-06-04T00:25:25;12.20;1.00
37408;DHT22;24866;50.248;8.252;2023-06-04T00:27:56;12.20;1.00
37408;DHT22;24866;50.248;8.252;2023-06-04T00:30:26;12.00;1.00
37408;DHT22;24866;50.248;8.252;2023-06-04T00:32:56;12.00;1.00
37408;DHT22;24866;50.248;8.252;2023-06-04T00:35:25;12.00;1.00
37408;DHT22;24866;50.248;8.252;2023-06-04T00:37:55;12.30;1.00
37408;DHT22;24866;50.248;8.252;2023-06-04T00:40:25;12.10;1.00
37408;DHT22;24866;50.248;8.252;2023-06-04T00:42:56;11.90;1.00
37408;DHT22;24866;50.248;8.252;2023-06-04T00:45:26;11.80;1.00
37408;DHT22;24866;50.248;8.252;2023-06-04T00:47:59;11.80;73.50
37408;DHT22;24866;50.248;8.252;2023-06-04T00:50:29;11.70;99.90
37408;DHT22;24866;50.248;8.252;2023-06-04T00:53:01;11.70;99.90
37408;DHT22;24866;50.248;8.252;2023-06-04T00:55:32;11.60;99.90
37408;DHT22;24866;50.248;8.252;2023-06-04T00:58:03;11.70;99.90
37408;DHT22;24866;50.248;8.252;2023-06-04T01:00:33;11.80;99.90
37408;DHT22;24866;50.248;8.252;2023-06-04T01:03:07;11.90;99.90
37408;DHT22;24866;50.248;8.252;2023-06-04T01:05:42;11.80;99.90
37408;DHT22;24866;50.248;8.252;2023-06-04T01:08:13;11.10;1.00
37408;DHT22;24866;50.248;8.252;2023-06-04T01:10:51;11.40;41.00
37408;DHT22;24866;50.248;8.252;2023-06-04T01:13:24;11.50;1.00
37408;DHT22;24866;50.248;8.252;2023-06-04T01:15:54;11.60;1.00
37408;DHT22;24866;50.248;8.252;2023-06-04T01:18:27;11.50;1.00
37408;DHT22;24866;50.248;8.252;2023-06-04T01:20:59;11.30;1.00
37408;DHT22;24866;50.248;8.252;2023-06-04T01:23:32;11.30;1.00
37408;DHT22;24866;50.248;8.252;2023-06-04T01:26:04;10.60;17.80
37408;DHT22;24866;50.248;8.252;2023-06-04T01:28:36;11.00;99.90
37408;DHT22;24866;50.248;8.252;2023-06-04T01:31:07;11.20;1.00
37408;DHT22;24866;50.248;8.252;2023-06-04T01:33:37;11.20;1.00
37408;DHT22;24866;50.248;8.252;2023-06-04T01:36:08;11.10;1.00
37408;DHT22;24866;50.248;8.252;2023-06-04T01:38:40;11.20;1.00
37408;DHT22;24866;50.248;8.252;2023-06-04T01:41:10;11.00;1.00
37408;DHT22;24866;50.248;8.252;2023-06-04T01:43:41;10.80;1.00
37408;DHT22;24866;50.248;8.252;2023-06-04T01:46:11;10.80;1.00
37408;DHT22;24866;50.248;8.252;2023-06-04T01:48:41;10.50;65.80
37408;DHT22;24866;50.248;8.252;2023-06-04T01:51:11;10.60;99.90
37408;DHT22;24866;50.248;8.252;2023-06-04T01:53:41;10.80;99.90
37408;DHT22;24866;50.248;8.252;2023-06-04T01:56:11;10.60;1.00
37408;DHT22;24866;50.248;8.252;2023-06-04T01:58:42;10.50;1.00
37408;DHT22;24866;50.248;8.252;2023-06-04T02:01:12;10.60;1.40
37408;DHT22;24866;50.248;8.252;2023-06-04T02:03:45;10.40;80.90
37408;DHT22;24866;50.248;8.252;2023-06-04T02:06:15;10.20;1.00
37408;DHT22;24866;50.248;8.252;2023-06-04T02:08:45;10.00;1.00
37408;DHT22;24866;50.248;8.252;2023-06-04T02:11:15;10.30;1.00
37408;DHT22;24866;50.248;8.252;2023-06-04T02:13:46;10.50;1.00
37408;DHT22;24866;50.248;8.252;2023-06-04T02:16:16;10.50;1.00
37408;DHT22;24866;50.248;8.252;2023-06-04T02:18:46;10.30;91.90
37408;DHT22;24866;50.248;8.252;2023-06-04T02:21:16;10.40;1.00
37408;DHT22;24866;50.248;8.252;2023-06-04T02:23:46;9.80;1.00
37408;DHT22;24866;50.248;8.252;2023-06-04T02:26:16;9.80;99.90
37408;DHT22;24866;50.248;8.252;2023-06-04T02:28:47;10.00;99.90
37408;DHT22;24866;50.248;8.252;2023-06-04T02:31:17;9.90;99.90
37408;DHT22;24866;50.248;8.252;2023-06-04T02:33:47;10.00;99.90
37408;DHT22;24866;50.248;8.252;2023-06-04T02:36:17;9.90;99.90
37408;DHT22;24866;50.248;8.252;2023-06-04T02:38:47;9.80;1.00
37408;DHT22;24866;50.248;8.252;2023-06-04T02:41:16;9.60;1.00
37408;DHT22;24866;50.248;8.252;2023-06-04T02:43:48;9.80;1.00
37408;DHT22;24866;50.248;8.252;2023-06-04T02:46:18;9.60;1.00
37408;DHT22;24866;50.248;8.252;2023-06-04T02:48:47;9.60;1.00
37408;DHT22;24866;50.248;8.252;2023-06-04T02:51:17;9.70;1.00
37408;DHT22;24866;50.248;8.252;2023-06-04T02:53:47;9.70;1.00
37408;DHT22;24866;50.248;8.252;2023-06-04T02:56:17;9.90;1.00
37408;DHT22;24866;50.248;8.252;2023-06-04T02:58:52;9.90;1.00
37408;DHT22;24866;50.248;8.252;2023-06-04T03:01:24;10.00;99.90
37408;DHT22;24866;50.248;8.252;2023-06-04T03:03:55;10.00;99.90
37408;DHT22;24866;50.248;8.252;2023-06-04T03:06:25;9.70;99.90
37408;DHT22;24866;50.248;8.252;2023-06-04T03:08:55;9.70;1.00
37408;DHT22;24866;50.248;8.252;2023-06-04T03:11:27;9.60;1.00
37408;DHT22;24866;50.248;8.252;2023-06-04T03:13:58;9.50;1.00
37408;DHT22;24866;50.248;8.252;2023-06-04T03:16:28;9.60;1.00
37408;DHT22;24866;50.248;8.252;2023-06-04T03:18:58;9.60;99.90
37408;DHT22;24866;50.248;8.252;2023-06-04T03:21:28;9.60;1.00
37408;DHT22;24866;50.248;8.252;2023-06-04T03:23:58;9.60;1.00
37408;DHT22;24866;50.248;8.252;2023-06-04T03:26:28;9.30;1.00
37408;DHT22;24866;50.248;8.252;2023-06-04T03:29:00;9.20;1.00
37408;DHT22;24866;50.248;8.252;2023-06-04T03:31:29;9.20;35.90
37408;DHT22;24866;50.248;8.252;2023-06-04T03:34:00;9.20;99.90
37408;DHT22;24866;50.248;8.252;2023-06-04T03:36:30;9.30;99.90
37408;DHT22;24866;50.248;8.252;2023-06-04T03:39:01;9.20;99.90
37408;DHT22;24866;50.248;8.252;2023-06-04T03:41:31;8.80;1.00
37408;DHT22;24866;50.248;8.252;2023-06-04T03:44:02;8.80;1.00
37408;DHT22;24866;50.248;8.252;2023-06-04T03:46:32;8.90;99.90
37408;DHT22;24866;50.248;8.252;2023-06-04T03:49:02;8.60;99.90
37408;DHT22;24866;50.248;8.252;2023-06-04T03:51:32;8.60;1.00
37408;DHT22;24866;50.248;8.252;2023-06-04T03:54:03;8.70;99.90
37408;DHT22;24866;50.248;8.252;2023-06-04T03:56:33;8.80;99.90
37408;DHT22;24866;50.248;8.252;2023-06-04T03:59:04;8.80;1.00
37408;DHT22;24866;50.248;8.252;2023-06-04T04:01:34;9.00;1.00
37408;DHT22;24866;50.248;8.252;2023-06-04T04:04:04;9.20;99.90
37408;DHT22;24866;50.248;8.252;2023-06-04T04:06:34;9.20;1.00
37408;DHT22;24866;50.248;8.252;2023-06-04T04:09:04;9.00;8.20
37408;DHT22;24866;50.248;8.252;2023-06-04T04:11:35;9.10;1.00
37408;DHT22;24866;50.248;8.252;2023-06-04T04:14:06;9.20;1.00
37408;DHT22;24866;50.248;8.252;2023-06-04T04:16:36;8.80;1.00
37408;DHT22;24866;50.248;8.252;2023-06-04T04:19:06;8.90;1.00
37408;DHT22;24866;50.248;8.252;2023-06-04T04:21:36;8.60;1.00
37408;DHT22;24866;50.248;8.252;2023-06-04T04:24:07;8.80;99.90
37408;DHT22;24866;50.248;8.252;2023-06-04T04:26:37;8.80;99.90
37408;DHT22;24866;50.248;8.252;2023-06-04T04:29:08;8.90;91.70
37408;DHT22;24866;50.248;8.252;2023-06-04T04:31:38;9.00;1.00
37408;DHT22;24866;50.248;8.252;2023-06-04T04:34:08;9.40;1.00
37408;DHT22;24866;50.248;8.252;2023-06-04T04:36:38;9.00;1.00
37408;DHT22;24866;50.248;8.252;2023-06-04T04:39:08;8.90;99.90
37408;DHT22;24866;50.248;8.252;2023-06-04T04:41:38;9.20;1.00
37408;DHT22;24866;50.248;8.252;2023-06-04T04:44:10;9.30;99.90
37408;DHT22;24866;50.248;8.252;2023-06-04T04:46:40;9.50;1.00
37408;DHT22;24866;50.248;8.252;2023-06-04T04:49:09;9.60;99.90
37408;DHT22;24866;50.248;8.252;2023-06-04T04:51:39;9.60;99.90
37408;DHT22;24866;50.248;8.252;2023-06-04T04:54:09;9.40;99.90
37408;DHT22;24866;50.248;8.252;2023-06-04T04:56:39;9.50;99.90
37408;DHT22;24866;50.248;8.252;2023-06-04T04:59:10;9.40;1.00
37408;DHT22;24866;50.248;8.252;2023-06-04T05:01:40;9.50;99.90
37408;DHT22;24866;50.248;8.252;2023-06-04T05:04:10;9.80;58.70
37408;DHT22;24866;50.248;8.252;2023-06-04T05:06:40;9.90;1.00
37408;DHT22;24866;50.248;8.252;2023-06-04T05:09:10;10.10;99.90
37408;DHT22;24866;50.248;8.252;2023-06-04T05:11:40;10.20;99.90
37408;DHT22;24866;50.248;8.252;2023-06-04T05:14:11;10.20;6.70
37408;DHT22;24866;50.248;8.252;2023-06-04T05:16:41;10.30;1.00
37408;DHT22;24866;50.248;8.252;2023-06-04T05:19:11;10.30;1.00
37408;DHT22;24866;50.248;8.252;2023-06-04T05:21:40;10.40;1.00
37408;DHT22;24866;50.248;8.252;2023-06-04T05:24:12;10.60;99.90
37408;DHT22;24866;50.248;8.252;2023-06-04T05:26:42;10.70;99.90
37408;DHT22;24866;50.248;8.252;2023-06-04T05:29:13;10.70;99.90
37408;DHT22;24866;50.248;8.252;2023-06-04T05:31:43;10.70;1.00
37408;DHT22;24866;50.248;8.252;2023-06-04T05:34:13;10.80;1.00
37408;DHT22;24866;50.248;8.252;2023-06-04T05:36:45;10.80;1.00
37408;DHT22;24866;50.248;8.252;2023-06-04T05:39:14;11.00;1.00
37408;DHT22;24866;50.248;8.252;2023-06-04T05:41:44;11.10;99.90
37408;DHT22;24866;50.248;8.252;2023-06-04T05:44:16;11.10;1.00
37408;DHT22;24866;50.248;8.252;2023-06-04T05:46:46;11.20;61.80
37408;DHT22;24866;50.248;8.252;2023-06-04T05:49:16;11.30;99.90
37408;DHT22;24866;50.248;8.252;2023-06-04T05:51:46;11.40;1.00
37408;DHT22;24866;50.248;8.252;2023-06-04T05:54:16;11.60;99.90
37408;DHT22;24866;50.248;8.252;2023-06-04T05:56:46;11.70;98.00
37408;DHT22;24866;50.248;8.252;2023-06-04T05:59:17;11.90;99.90
37408;DHT22;24866;50.248;8.252;2023-06-04T06:01:47;11.90;1.00
37408;DHT22;24866;50.248;8.252;2023-06-04T06:04:17;12.10;1.00
37408;DHT22;24866;50.248;8.252;2023-06-04T06:06:47;12.20;99.90
37408;DHT22;24866;50.248;8.252;2023-06-04T06:09:17;12.30;99.90
37408;DHT22;24866;50.248;8.252;2023-06-04T06:11:49;12.50;99.90
37408;DHT22;24866;50.248;8.252;2023-06-04T06:14:21;12.50;1.00
37408;DHT22;24866;50.248;8.252;2023-06-04T06:16:51;12.70;1.00
37408;DHT22;24866;50.248;8.252;2023-06-04T06:19:22;12.80;1.00
37408;DHT22;24866;50.248;8.252;2023-06-04T06:21:52;13.10;99.90
37408;DHT22;24866;50.248;8.252;2023-06-04T06:24:22;13.20;1.00
37408;DHT22;24866;50.248;8.252;2023-06-04T06:26:52;13.40;1.00
37408;DHT22;24866;50.248;8.252;2023-06-04T06:29:23;13.40;99.90
37408;DHT22;24866;50.248;8.252;2023-06-04T06:31:53;13.60;1.00
37408;DHT22;24866;50.248;8.252;2023-06-04T06:34:24;13.80;1.00
37408;DHT22;24866;50.248;8.252;2023-06-04T06:36:55;14.00;1.00
37408;DHT22;24866;50.248;8.252;2023-06-04T06:39:25;14.00;1.00
37408;DHT22;24866;50.248;8.252;2023-06-04T06:41:55;14.00;1.00
37408;DHT22;24866;50.248;8.252;2023-06-04T06:44:26;14.20;1.00
37408;DHT22;24866;50.248;8.252;2023-06-04T06:46:57;14.40;1.00
37408;DHT22;24866;50.248;8.252;2023-06-04T06:49:27;14.50;1.00
37408;DHT22;24866;50.248;8.252;2023-06-04T06:51:56;14.60;1.00
37408;DHT22;24866;50.248;8.252;2023-06-04T06:54:26;14.80;1.00
37408;DHT22;24866;50.248;8.252;2023-06-04T06:56:56;14.80;1.00
37408;DHT22;24866;50.248;8.252;2023-06-04T06:59:28;14.90;99.90
37408;DHT22;24866;50.248;8.252;2023-06-04T07:01:58;14.90;99.90
37408;DHT22;24866;50.248;8.252;2023-06-04T07:04:28;15.00;99.90
37408;DHT22;24866;50.248;8.252;2023-06-04T07:06:57;15.00;99.90
37408;DHT22;24866;50.248;8.252;2023-06-04T07:09:27;15.40;1.00
37408;DHT22;24866;50.248;8.252;2023-06-04T07:11:57;15.50;99.90
37408;DHT22;24866;50.248;8.252;2023-06-04T07:14:29;15.70;99.90
37408;DHT22;24866;50.248;8.252;2023-06-04T07:16:58;15.80;99.90
37408;DHT22;24866;50.248;8.252;2023-06-04T07:19:28;15.90;99.90
37408;DHT22;24866;50.248;8.252;2023-06-04T07:22:00;15.90;99.90
37408;DHT22;24866;50.248;8.252;2023-06-04T07:24:30;15.90;99.90
37408;DHT22;24866;50.248;8.252;2023-06-04T07:27:00;16.10;1.00
37408;DHT22;24866;50.248;8.252;2023-06-04T07:29:31;16.20;1.00
37408;DHT22;24866;50.248;8.252;2023-06-04T07:32:01;16.40;1.00
37408;DHT22;24866;50.248;8.252;2023-06-04T07:34:31;16.40;1.00
37408;DHT22;24866;50.248;8.252;2023-06-04T07:37:01;16.50;1.00
37408;DHT22;24866;50.248;8.252;2023-06-04T07:39:31;16.50;1.00
37408;DHT22;24866;50.248;8.252;2023-06-04T07:42:01;16.60;1.00
37408;DHT22;24866;50.248;8.252;2023-06-04T07:44:36;16.60;1.00
37408;DHT22;24866;50.248;8.252;2023-06-04T07:47:08;16.60;1.00
37408;DHT22;24866;50.248;8.252;2023-06-04T07:49:38;16.80;1.00
37408;DHT22;24866;50.248;8.252;2023-06-04T07:52:08;16.90;1.00
37408;DHT22;24866;50.248;8.252;2023-06-04T07:54:40;17.10;1.00
37408;DHT22;24866;50.248;8.252;2023-06-04T07:57:10;17.00;1.00
37408;DHT22;24866;50.248;8.252;2023-06-04T07:59:42;17.40;1.00
37408;DHT22;24866;50.248;8.252;2023-06-04T08:02:12;17.70;1.00
37408;DHT22;24866;50.248;8.252;2023-06-04T08:04:44;17.60;1.00
37408;DHT22;24866;50.248;8.252;2023-06-04T08:07:14;17.60;1.00
37408;DHT22;24866;50.248;8.252;2023-06-04T08:09:44;17.90;1.00
37408;DHT22;24866;50.248;8.252;2023-06-04T08:12:14;17.80;1.00
37408;DHT22;24866;50.248;8.252;2023-06-04T08:14:46;18.10;1.00
37408;DHT22;24866;50.248;8.252;2023-06-04T08:17:16;18.10;1.00
37408;DHT22;24866;50.248;8.252;2023-06-04T08:19:45;18.20;1.00
37408;DHT22;24866;50.248;8.252;2023-06-04T08:22:15;18.30;1.00
37408;DHT22;24866;50.248;8.252;2023-06-04T08:24:45;18.60;1.00
37408;DHT22;24866;50.248;8.252;2023-06-04T08:27:15;18.90;1.00
37408;DHT22;24866;50.248;8.252;2023-06-04T08:29:47;19.10;1.00
37408;DHT22;24866;50.248;8.252;2023-06-04T08:32:17;18.80;1.00
37408;DHT22;24866;50.248;8.252;2023-06-04T08:34:47;19.20;1.00
37408;DHT22;24866;50.248;8.252;2023-06-04T08:37:17;19.20;1.00
37408;DHT22;24866;50.248;8.252;2023-06-04T08:39:47;19.60;1.00
37408;DHT22;24866;50.248;8.252;2023-06-04T08:42:22;19.50;1.00
37408;DHT22;24866;50.248;8.252;2023-06-04T08:44:58;19.60;1.00
37408;DHT22;24866;50.248;8.252;2023-06-04T08:47:29;20.00;1.00
37408;DHT22;24866;50.248;8.252;2023-06-04T08:50:00;19.80;1.00
37408;DHT22;24866;50.248;8.252;2023-06-04T08:52:30;19.70;99.90
37408;DHT22;24866;50.248;8.252;2023-06-04T08:55:00;19.70;99.90
37408;DHT22;24866;50.248;8.252;2023-06-04T08:57:31;20.10;99.90
37408;DHT22;24866;50.248;8.252;2023-06-04T09:00:03;20.10;99.90
37408;DHT22;24866;50.248;8.252;2023-06-04T09:02:36;20.50;99.90
37408;DHT22;24866;50.248;8.252;2023-06-04T09:05:07;20.80;1.00
37408;DHT22;24866;50.248;8.252;2023-06-04T09:07:39;21.10;1.00
37408;DHT22;24866;50.248;8.252;2023-06-04T09:10:13;20.80;99.90
37408;DHT22;24866;50.248;8.252;2023-06-04T09:12:47;21.30;1.00
37408;DHT22;24866;50.248;8.252;2023-06-04T09:15:18;21.10;99.90
37408;DHT22;24866;50.248;8.252;2023-06-04T09:17:48;20.90;99.90
37408;DHT22;24866;50.248;8.252;2023-06-04T09:20:19;20.60;99.90
37408;DHT22;24866;50.248;8.252;2023-06-04T09:22:49;20.70;99.90
37408;DHT22;24866;50.248;8.252;2023-06-04T09:25:20;21.10;99.90
37408;DHT22;24866;50.248;8.252;2023-06-04T09:27:51;21.20;99.90
37408;DHT22;24866;50.248;8.252;2023-06-04T09:30:23;20.80;99.90
37408;DHT22;24866;50.248;8.252;2023-06-04T09:32:53;21.30;99.90
37408;DHT22;24866;50.248;8.252;2023-06-04T09:35:23;21.10;99.90
37408;DHT22;24866;50.248;8.252;2023-06-04T09:37:54;21.80;99.90
37408;DHT22;24866;50.248;8.252;2023-06-04T09:40:24;21.90;99.90
37408;DHT22;24866;50.248;8.252;2023-06-04T09:42:54;21.70;99.90
37408;DHT22;24866;50.248;8.252;2023-06-04T09:45:29;21.50;99.90
37408;DHT22;24866;50.248;8.252;2023-06-04T09:48:01;22.10;99.90
37408;DHT22;24866;50.248;8.252;2023-06-04T09:50:32;22.10;99.90
37408;DHT22;24866;50.248;8.252;2023-06-04T09:53:12;21.80;99.90
37408;DHT22;24866;50.248;8.252;2023-06-04T09:55:42;22.20;99.90
37408;DHT22;24866;50.248;8.252;2023-06-04T09:58:13;22.20;99.90
37408;DHT22;24866;50.248;8.252;2023-06-04T10:00:45;22.20;99.90
37408;DHT22;24866;50.248;8.252;2023-06-04T10:03:16;22.30;99.90
37408;DHT22;24866;50.248;8.252;2023-06-04T10:05:52;22.80;99.90
37408;DHT22;24866;50.248;8.252;2023-06-04T10:08:23;22.90;99.90
37408;DHT22;24866;50.248;8.252;2023-06-04T10:10:55;23.00;99.90
37408;DHT22;24866;50.248;8.252;2023-06-04T10:13:27;22.70;96.30
37408;DHT22;24866;50.248;8.252;2023-06-04T10:15:59;22.80;73.80
37408;DHT22;24866;50.248;8.252;2023-06-04T10:18:30;23.00;83.30
37408;DHT22;24866;50.248;8.252;2023-06-04T10:21:00;23.10;47.50
37408;DHT22;24866;50.248;8.252;2023-06-04T10:23:31;23.30;39.40
37408;DHT22;24866;50.248;8.252;2023-06-04T10:26:01;23.30;10.50
37408;DHT22;24866;50.248;8.252;2023-06-04T10:28:32;23.30;1.00
37408;DHT22;24866;50.248;8.252;2023-06-04T10:31:04;23.10;1.00
37408;DHT22;24866;50.248;8.252;2023-06-04T10:33:34;23.60;1.00
37408;DHT22;24866;50.248;8.252;2023-06-04T10:36:16;23.80;1.00
37408;DHT22;24866;50.248;8.252;2023-06-04T10:38:47;23.80;1.00
37408;DHT22;24866;50.248;8.252;2023-06-04T10:41:19;23.60;1.00
37408;DHT22;24866;50.248;8.252;2023-06-04T10:43:51;23.10;1.00
37408;DHT22;24866;50.248;8.252;2023-06-04T10:46:22;23.30;1.00
37408;DHT22;24866;50.248;8.252;2023-06-04T10:48:53;22.90;1.00
37408;DHT22;24866;50.248;8.252;2023-06-04T10:51:30;23.20;1.00
37408;DHT22;24866;50.248;8.252;2023-06-04T10:54:01;23.20;1.00
37408;DHT22;24866;50.248;8.252;2023-06-04T10:56:32;23.60;1.00
37408;DHT22;24866;50.248;8.252;2023-06-04T10:59:13;24.00;1.00
37408;DHT22;24866;50.248;8.252;2023-06-04T11:01:47;23.80;1.00
37408;DHT22;24866;50.248;8.252;2023-06-04T11:04:21;24.30;1.00
37408;DHT22;24866;50.248;8.252;2023-06-04T11:07:00;24.40;1.00
37408;DHT22;24866;50.248;8.252;2023-06-04T11:09:32;23.90;1.00
37408;DHT22;24866;50.248;8.252;2023-06-04T11:12:05;23.30;1.00
37408;DHT22;24866;50.248;8.252;2023-06-04T11:14:35;23.20;1.00
37408;DHT22;24866;50.248;8.252;2023-06-04T11:17:15;23.20;1.00
37408;DHT22;24866;50.248;8.252;2023-06-04T11:19:45;23.20;1.00
37408;DHT22;24866;50.248;8.252;2023-06-04T11:22:15;23.30;1.00
37408;DHT22;24866;50.248;8.252;2023-06-04T11:24:45;23.30;99.90
37408;DHT22;24866;50.248;8.252;2023-06-04T11:27:15;23.60;1.00
37408;DHT22;24866;50.248;8.252;2023-06-04T11:29:49;24.00;1.00
37408;DHT22;24866;50.248;8.252;2023-06-04T11:32:24;24.30;1.00
37408;DHT22;24866;50.248;8.252;2023-06-04T11:35:02;24.40;1.00
37408;DHT22;24866;50.248;8.252;2023-06-04T11:37:34;24.00;99.90
37408;DHT22;24866;50.248;8.252;2023-06-04T11:40:15;23.60;99.90
37408;DHT22;24866;50.248;8.252;2023-06-04T11:42:46;24.40;99.90
37408;DHT22;24866;50.248;8.252;2023-06-04T11:45:20;24.40;99.90
37408;DHT22;24866;50.248;8.252;2023-06-04T11:47:54;24.50;99.90
37408;DHT22;24866;50.248;8.252;2023-06-04T11:50:27;24.70;99.90
37408;DHT22;24866;50.248;8.252;2023-06-04T11:52:58;24.30;99.90
37408;DHT22;24866;50.248;8.252;2023-06-04T11:55:29;24.40;99.90
37408;DHT22;24866;50.248;8.252;2023-06-04T11:57:59;23.30;99.90
37408;DHT22;24866;50.248;8.252;2023-06-04T12:00:32;23.60;99.90
37408;DHT22;24866;50.248;8.252;2023-06-04T12:03:04;24.50;99.90
37408;DHT22;24866;50.248;8.252;2023-06-04T12:05:34;24.40;99.90
37408;DHT22;24866;50.248;8.252;2023-06-04T12:08:05;24.30;99.90
37408;DHT22;24866;50.248;8.252;2023-06-04T12:10:39;24.10;99.90
37408;DHT22;24866;50.248;8.252;2023-06-04T12:13:09;24.20;99.90
37408;DHT22;24866;50.248;8.252;2023-06-04T12:15:39;23.90;99.90
37408;DHT22;24866;50.248;8.252;2023-06-04T12:18:11;24.70;99.90
37408;DHT22;24866;50.248;8.252;2023-06-04T12:20:41;24.80;99.90
37408;DHT22;24866;50.248;8.252;2023-06-04T12:23:20;24.40;99.90
37408;DHT22;24866;50.248;8.252;2023-06-04T12:25:50;25.20;99.90
37408;DHT22;24866;50.248;8.252;2023-06-04T12:28:20;24.70;99.90
37408;DHT22;24866;50.248;8.252;2023-06-04T12:30:50;24.40;74.60
37408;DHT22;24866;50.248;8.252;2023-06-04T12:33:21;24.10;22.20
37408;DHT22;24866;50.248;8.252;2023-06-04T12:35:51;24.50;37.20
37408;DHT22;24866;50.248;8.252;2023-06-04T12:38:21;25.00;65.90
37408;DHT22;24866;50.248;8.252;2023-06-04T12:40:51;25.30;78.50
37408;DHT22;24866;50.248;8.252;2023-06-04T12:43:21;25.80;96.00
37408;DHT22;24866;50.248;8.252;2023-06-04T12:45:51;25.90;88.00
37408;DHT22;24866;50.248;8.252;2023-06-04T12:48:23;25.30;13.50
37408;DHT22;24866;50.248;8.252;2023-06-04T12:50:53;24.90;1.00
37408;DHT22;24866;50.248;8.252;2023-06-04T12:53:22;24.60;1.00
37408;DHT22;24866;50.248;8.252;2023-06-04T12:55:52;24.70;1.00
37408;DHT22;24866;50.248;8.252;2023-06-04T12:58:22;25.20;1.00
37408;DHT22;24866;50.248;8.252;2023-06-04T13:00:52;25.70;1.00
37408;DHT22;24866;50.248;8.252;2023-06-04T13:03:25;24.60;1.00
37408;DHT22;24866;50.248;8.252;2023-06-04T13:05:55;25.00;1.00
37408;DHT22;24866;50.248;8.252;2023-06-04T13:08:25;25.50;1.00
37408;DHT22;24866;50.248;8.252;2023-06-04T13:10:55;24.90;1.00
37408;DHT22;24866;50.248;8.252;2023-06-04T13:13:27;24.40;1.00
37408;DHT22;24866;50.248;8.252;2023-06-04T13:15:57;24.80;1.00
37408;DHT22;24866;50.248;8.252;2023-06-04T13:18:29;24.70;1.00
37408;DHT22;24866;50.248;8.252;2023-06-04T13:20:59;24.10;1.00
37408;DHT22;24866;50.248;8.252;2023-06-04T13:23:28;24.60;1.00
37408;DHT22;24866;50.248;8.252;2023-06-04T13:25:58;24.30;1.00
37408;DHT22;24866;50.248;8.252;2023-06-04T13:28:29;24.60;1.00
37408;DHT22;24866;50.248;8.252;2023-06-04T13:30:59;25.40;1.00
37408;DHT22;24866;50.248;8.252;2023-06-04T13:33:30;26.00;1.00
37408;DHT22;24866;50.248;8.252;2023-06-04T13:36:03;25.40;1.00
37408;DHT22;24866;50.248;8.252;2023-06-04T13:38:33;25.90;1.00
37408;DHT22;24866;50.248;8.252;2023-06-04T13:41:03;25.60;1.00
37408;DHT22;24866;50.248;8.252;2023-06-04T13:43:33;25.40;1.00
37408;DHT22;24866;50.248;8.252;2023-06-04T13:46:03;25.90;1.00
37408;DHT22;24866;50.248;8.252;2023-06-04T13:48:35;26.30;1.00
37408;DHT22;24866;50.248;8.252;2023-06-04T13:51:05;26.30;1.00
37408;DHT22;24866;50.248;8.252;2023-06-04T13:53:35;26.20;1.00
37408;DHT22;24866;50.248;8.252;2023-06-04T13:56:05;24.70;1.00
37408;DHT22;24866;50.248;8.252;2023-06-04T13:58:36;25.20;1.00
37408;DHT22;24866;50.248;8.252;2023-06-04T14:01:06;25.60;1.00
37408;DHT22;24866;50.248;8.252;2023-06-04T14:03:37;25.20;1.00
37408;DHT22;24866;50.248;8.252;2023-06-04T14:06:07;25.60;1.00
37408;DHT22;24866;50.248;8.252;2023-06-04T14:08:37;26.20;1.00
37408;DHT22;24866;50.248;8.252;2023-06-04T14:11:07;26.10;1.00
37408;DHT22;24866;50.248;8.252;2023-06-04T14:13:37;26.10;1.00
37408;DHT22;24866;50.248;8.252;2023-06-04T14:16:09;25.70;1.00
37408;DHT22;24866;50.248;8.252;2023-06-04T14:18:41;25.60;1.00
37408;DHT22;24866;50.248;8.252;2023-06-04T14:21:11;25.80;1.00
37408;DHT22;24866;50.248;8.252;2023-06-04T14:23:41;25.50;1.00
37408;DHT22;24866;50.248;8.252;2023-06-04T14:26:10;25.50;1.00
37408;DHT22;24866;50.248;8.252;2023-06-04T14:28:40;26.20;1.00
37408;DHT22;24866;50.248;8.252;2023-06-04T14:31:10;26.10;1.00
37408;DHT22;24866;50.248;8.252;2023-06-04T14:33:41;26.30;1.00
37408;DHT22;24866;50.248;8.252;2023-06-04T14:36:11;26.60;1.00
37408;DHT22;24866;50.248;8.252;2023-06-04T14:38:41;26.70;1.00
37408;DHT22;24866;50.248;8.252;2023-06-04T14:41:12;26.90;1.00
37408;DHT22;24866;50.248;8.252;2023-06-04T14:43:42;26.70;99.90
37408;DHT22;24866;50.248;8.252;2023-06-04T14:46:12;26.30;99.90
37408;DHT22;24866;50.248;8.252;2023-06-04T14:48:43;25.60;99.90
37408;DHT22;24866;50.248;8.252;2023-06-04T14:51:13;25.70;99.90
37408;DHT22;24866;50.248;8.252;2023-06-04T14:53:43;26.00;99.90
37408;DHT22;24866;50.248;8.252;2023-06-04T14:56:13;26.20;99.90
37408;DHT22;24866;50.248;8.252;2023-06-04T14:58:43;25.40;99.90
37408;DHT22;24866;50.248;8.252;2023-06-04T15:01:13;25.80;99.90
37408;DHT22;24866;50.248;8.252;2023-06-04T15:03:46;26.00;99.90
37408;DHT22;24866;50.248;8.252;2023-06-04T15:06:16;25.60;99.90
37408;DHT22;24866;50.248;8.252;2023-06-04T15:08:46;26.20;99.90
37408;DHT22;24866;50.248;8.252;2023-06-04T15:11:16;25.90;99.90
37408;DHT22;24866;50.248;8.252;2023-06-04T15:13:45;26.10;99.90
37408;DHT22;24866;50.248;8.252;2023-06-04T15:16:15;26.20;99.90
37408;DHT22;24866;50.248;8.252;2023-06-04T15:18:47;26.30;99.90
37408;DHT22;24866;50.248;8.252;2023-06-04T15:21:17;26.20;99.90
37408;DHT22;24866;50.248;8.252;2023-06-04T15:23:46;25.70;99.90
37408;DHT22;24866;50.248;8.252;2023-06-04T15:26:17;25.10;99.90
37408;DHT22;24866;50.248;8.252;2023-06-04T15:28:47;25.20;99.90
37408;DHT22;24866;50.248;8.252;2023-06-04T15:31:17;25.40;99.90
37408;DHT22;24866;50.248;8.252;2023-06-04T15:33:48;25.50;99.90
37408;DHT22;24866;50.248;8.252;2023-06-04T15:36:18;25.80;99.90
37408;DHT22;24866;50.248;8.252;2023-06-04T15:38:48;25.90;99.90
37408;DHT22;24866;50.248;8.252;2023-06-04T15:41:19;25.90;99.90
37408;DHT22;24866;50.248;8.252;2023-06-04T15:43:51;25.30;99.90
37408;DHT22;24866;50.248;8.252;2023-06-04T15:46:23;25.70;99.90
37408;DHT22;24866;50.248;8.252;2023-06-04T15:48:56;25.20;92.50
37408;DHT22;24866;50.248;8.252;2023-06-04T15:51:26;25.30;89.40
37408;DHT22;24866;50.248;8.252;2023-06-04T15:53:57;25.10;57.60
37408;DHT22;24866;50.248;8.252;2023-06-04T15:56:29;25.20;58.00
37408;DHT22;24866;50.248;8.252;2023-06-04T15:58:59;25.30;54.00
37408;DHT22;24866;50.248;8.252;2023-06-04T16:01:29;25.40;55.20
37408;DHT22;24866;50.248;8.252;2023-06-04T16:04:01;24.90;10.90